Time;durP1;ratioP1;P1;durP2;ratioP2;P2;SDS_P1;SDS_P2;PMS_P1;PMS_P2;Temp;Humidity;BMP_temperature;BMP_pressure;BME280_temperature;BME280_humidity;BME280_pressure;Samples;Min_cycle;Max_cycle;Signal;HPM_P1;HPM_P2
2022/04/26 03:37:34;;;;;;;0.30;0.30;;;8.40;74.70;;;;;;5099137;28;20104;-73
2022/04/26 03:40:00;;;;;;;0.30;0.30;;;8.40;75.30;;;;;;5080563;28;20044;-73
2022/04/26 03:42:25;;;;;;;0.60;0.52;;;8.40;74.80;;;;;;5096698;28;20036;-73
2022/04/26 03:44:51;;;;;;;1.35;0.57;;;8.30;75.40;;;;;;5096974;28;20042;-73
2022/04/26 03:47:17;;;;;;;0.50;0.50;;;8.30;74.80;;;;;;5096771;28;20052;-73
2022/04/26 03:49:43;;;;;;;0.45;0.32;;;8.40;74.90;;;;;;5114697;28;20051;-73
2022/04/26 03:52:08;;;;;;;0.40;0.40;;;8.30;74.90;;;;;;5114836;28;20051;-73
2022/04/26 03:54:35;;;;;;;0.45;0.45;;;8.30;74.90;;;;;;5096535;28;20084;-73
2022/04/26 03:57:00;;;;;;;0.43;0.43;;;8.30;75.00;;;;;;5096580;28;20050;-73
2022/04/26 03:59:26;;;;;;;0.88;0.50;;;8.30;75.10;;;;;;5115057;28;20032;-73
2022/04/26 04:01:51;;;;;;;1.85;0.43;;;8.40;75.10;;;;;;5114983;28;20050;-73
2022/04/26 04:04:17;;;;;;;0.43;0.40;;;8.30;75.10;;;;;;5115287;28;20040;-73
2022/04/26 04:06:43;;;;;;;0.40;0.40;;;8.40;75.20;;;;;;5114842;28;20051;-73
2022/04/26 04:09:08;;;;;;;0.43;0.43;;;8.30;75.20;;;;;;5115325;28;20034;-73
2022/04/26 04:11:34;;;;;;;0.55;0.55;;;8.40;75.30;;;;;;5114749;28;20036;-73
2022/04/26 04:14:00;;;;;;;0.70;0.40;;;8.40;75.30;;;;;;5096425;28;20053;-73
2022/04/26 04:16:26;;;;;;;0.68;0.50;;;8.40;75.30;;;;;;5096786;28;20031;-73
2022/04/26 04:21:36;;;;;;;0.60;0.60;;;8.40;75.40;;;;;;5099358;28;20481;-73
2022/04/26 04:24:03;;;;;;;0.55;0.45;;;8.30;75.40;;;;;;5115146;28;20084;-73
2022/04/26 04:26:29;;;;;;;1.13;0.60;;;8.40;75.50;;;;;;5079469;28;20050;-73
2022/04/26 04:28:54;;;;;;;0.80;0.60;;;8.30;75.40;;;;;;5114660;28;20130;-74
2022/04/26 04:31:20;;;;;;;1.42;0.73;;;8.30;75.50;;;;;;5096782;28;20043;-73
2022/04/26 04:33:46;;;;;;;1.27;0.63;;;8.40;75.60;;;;;;5096809;28;20044;-73
2022/04/26 04:36:12;;;;;;;1.08;0.68;;;8.40;75.60;;;;;;5096602;28;20088;-73
2022/04/26 04:38:38;;;;;;;0.73;0.50;;;8.30;75.70;;;;;;5114774;28;20553;-74
2022/04/26 04:41:06;;;;;;;0.35;0.35;;;8.30;75.70;;;;;;5114622;28;20047;-73
2022/04/26 04:43:32;;;;;;;0.50;0.50;;;8.30;75.80;;;;;;5114991;28;20039;-73
2022/04/26 04:45:58;;;;;;;0.57;0.55;;;8.30;75.80;;;;;;5114454;28;20048;-73
2022/04/26 04:48:23;;;;;;;1.08;0.52;;;8.40;75.80;;;;;;5114299;28;20118;-74
2022/04/26 04:50:49;;;;;;;0.77;0.50;;;8.30;75.80;;;;;;5096547;28;20489;-73
2022/04/26 04:53:19;;;;;;;0.85;0.65;;;8.30;75.80;;;;;;5096174;28;20446;-73
2022/04/26 04:55:45;;;;;;;1.17;0.70;;;8.40;76.00;;;;;;5114471;28;20036;-73
2022/04/26 04:58:10;;;;;;;1.67;0.70;;;8.40;75.90;;;;;;5096094;28;20087;-73
2022/04/26 05:00:36;;;;;;;0.70;0.57;;;8.40;75.90;;;;;;5114811;28;20047;-73
2022/04/26 05:03:02;;;;;;;1.13;0.90;;;8.40;75.90;;;;;;5114159;28;20035;-73
2022/04/26 05:05:27;;;;;;;0.90;0.77;;;8.40;75.90;;;;;;5114491;28;20040;-73
2022/04/26 05:07:54;;;;;;;0.70;0.60;;;8.40;75.90;;;;;;5114094;28;20033;-74
2022/04/26 05:10:20;;;;;;;1.25;0.80;;;8.40;76.00;;;;;;5114183;28;20040;-74
2022/04/26 05:12:45;;;;;;;0.77;0.75;;;8.50;76.10;;;;;;5095766;28;20050;-74
2022/04/26 05:15:11;;;;;;;0.80;0.60;;;8.40;76.00;;;;;;5113241;28;20122;-74
2022/04/26 05:17:37;;;;;;;1.25;0.80;;;8.40;76.00;;;;;;5113903;28;20401;-73
2022/04/26 05:20:04;;;;;;;1.65;0.82;;;8.60;76.00;;;;;;5114444;28;20114;-74
2022/04/26 05:22:30;;;;;;;1.00;0.60;;;8.50;75.90;;;;;;5079099;28;20038;-73
2022/04/26 05:24:57;;;;;;;0.88;0.80;;;8.50;75.90;;;;;;5078649;28;20040;-74
2022/04/26 05:27:27;;;;;;;1.50;0.90;;;8.50;75.90;;;;;;5096020;28;20047;-73
2022/04/26 05:29:54;;;;;;;1.35;0.82;;;8.50;76.00;;;;;;5078572;28;20535;-73
2022/04/26 05:32:21;;;;;;;1.08;0.73;;;8.50;76.00;;;;;;5078529;28;20074;-74
2022/04/26 05:34:48;;;;;;;1.00;0.90;;;8.50;76.00;;;;;;5114368;28;20496;-74
2022/04/26 05:37:14;;;;;;;1.58;0.90;;;8.50;76.00;;;;;;5095911;28;20050;-73
2022/04/26 05:39:39;;;;;;;1.20;0.90;;;8.60;76.00;;;;;;5078282;28;20040;-74
2022/04/26 05:42:05;;;;;;;1.20;0.80;;;8.60;76.00;;;;;;5113500;28;20126;-74
2022/04/26 05:44:31;;;;;;;1.00;0.70;;;8.60;76.00;;;;;;5094839;28;20470;-73
2022/04/26 05:46:57;;;;;;;0.80;0.80;;;8.70;76.00;;;;;;5095202;28;20040;-74
2022/04/26 05:49:22;;;;;;;2.22;1.08;;;8.70;76.00;;;;;;5078337;28;20043;-74
2022/04/26 05:51:49;;;;;;;1.20;0.98;;;8.70;76.00;;;;;;5095170;28;20484;-73
2022/04/26 05:54:15;;;;;;;1.20;0.98;;;8.80;75.90;;;;;;5095120;28;20098;-73
2022/04/26 05:56:40;;;;;;;1.77;0.90;;;8.80;75.90;;;;;;5113530;28;20062;-73
2022/04/26 05:59:07;;;;;;;1.00;0.80;;;8.90;75.90;;;;;;5113290;28;20047;-73
2022/04/26 06:01:32;;;;;;;1.55;0.93;;;9.00;75.90;;;;;;5095013;28;20047;-73
2022/04/26 06:03:58;;;;;;;0.90;0.80;;;8.90;75.70;;;;;;5094964;28;20066;-73
2022/04/26 06:06:25;;;;;;;1.02;0.75;;;8.90;75.80;;;;;;5112915;28;20048;-73
2022/04/26 06:08:51;;;;;;;1.10;0.80;;;9.00;75.80;;;;;;5113309;28;20040;-73
2022/04/26 06:11:17;;;;;;;1.73;1.30;;;9.10;75.80;;;;;;5113723;28;20028;-73
2022/04/26 06:13:43;;;;;;;1.30;0.95;;;9.00;75.70;;;;;;5112980;28;20441;-74
2022/04/26 06:16:09;;;;;;;1.60;1.13;;;9.10;75.60;;;;;;5113044;28;20032;-73
2022/04/26 06:18:35;;;;;;;1.63;0.98;;;9.20;75.60;;;;;;5113515;28;20046;-73
2022/04/26 06:21:01;;;;;;;1.00;0.90;;;9.20;75.50;;;;;;5112827;28;20028;-74
2022/04/26 06:23:27;;;;;;;1.48;0.75;;;9.30;75.30;;;;;;5078212;28;20126;-74
2022/04/26 06:25:53;;;;;;;1.27;0.90;;;9.40;75.30;;;;;;5076419;28;20123;-73
2022/04/26 06:28:19;;;;;;;1.30;0.90;;;9.50;75.30;;;;;;5095370;28;20061;-74
2022/04/26 06:30:44;;;;;;;1.45;1.10;;;9.50;75.10;;;;;;5096589;28;20036;-74
2022/04/26 06:33:10;;;;;;;2.90;1.30;;;9.60;75.10;;;;;;5113299;28;20088;-72
2022/04/26 06:35:36;;;;;;;1.50;0.90;;;9.60;75.00;;;;;;5095590;28;20509;-73
2022/04/26 06:38:02;;;;;;;2.78;1.30;;;9.70;75.00;;;;;;5062007;28;20040;-73
2022/04/26 06:40:27;;;;;;;2.15;1.17;;;9.70;74.90;;;;;;5094945;28;20093;-73
2022/04/26 06:42:59;;;;;;;1.50;1.20;;;9.80;74.90;;;;;;5113400;28;20036;-72
2022/04/26 06:45:25;;;;;;;2.17;1.08;;;9.90;75.00;;;;;;5052964;28;20037;-72
2022/04/26 06:47:54;;;;;;;1.40;0.98;;;9.90;74.80;;;;;;5069986;28;20037;-73
2022/04/26 06:50:19;;;;;;;1.50;1.10;;;9.90;74.60;;;;;;4996735;28;20100;-74
2022/04/26 06:52:45;;;;;;;1.73;1.23;;;10.10;74.60;;;;;;5011906;28;20049;-73
2022/04/26 06:55:13;;;;;;;2.75;1.17;;;10.10;74.60;;;;;;5010381;28;20132;-75
2022/04/26 07:00:54;;;;;;;1.67;0.93;;;10.10;74.50;;;;;;4901999;29;20491;-74
2022/04/26 07:03:20;;;;;;;1.35;0.90;;;10.10;74.40;;;;;;4914116;29;20050;-73
2022/04/26 07:05:46;;;;;;;1.55;1.17;;;10.10;74.50;;;;;;4914761;29;20052;-74
2022/04/26 07:08:12;;;;;;;1.67;1.13;;;10.10;74.60;;;;;;4916956;29;20068;-74
2022/04/26 07:10:38;;;;;;;1.25;0.80;;;10.10;74.60;;;;;;4915203;29;20044;-73
2022/04/26 07:13:04;;;;;;;1.50;1.00;;;10.10;74.80;;;;;;4915973;29;20055;-73
2022/04/26 07:15:30;;;;;;;1.52;1.08;;;10.10;74.90;;;;;;4915906;29;20040;-74
2022/04/26 07:17:55;;;;;;;1.25;0.95;;;10.00;74.80;;;;;;4918754;29;20051;-74
2022/04/26 07:20:24;;;;;;;1.20;1.00;;;10.10;74.90;;;;;;4924416;28;20072;-74
2022/04/26 07:22:50;;;;;;;1.30;0.75;;;10.10;74.90;;;;;;4974663;28;20039;-73
2022/04/26 07:25:16;;;;;;;1.50;0.80;;;10.10;75.00;;;;;;5014599;28;20037;-73
2022/04/26 07:27:41;;;;;;;1.60;0.90;;;10.10;75.00;;;;;;5031419;28;20041;-73
2022/04/26 07:30:07;;;;;;;1.60;0.93;;;10.10;75.10;;;;;;5030401;28;20053;-74
2022/04/26 07:35:13;;;;;;;0.95;0.85;;;10.10;75.10;;;;;;5112414;28;20054;-73
2022/04/26 07:37:40;;;;;;;0.82;0.80;;;10.20;75.20;;;;;;5095437;28;20485;-72
2022/04/26 07:40:07;;;;;;;0.95;0.82;;;10.20;75.20;;;;;;5097308;28;20401;-74
2022/04/26 07:42:33;;;;;;;1.17;1.05;;;10.10;75.20;;;;;;5098987;28;20040;-73
2022/04/26 07:44:59;;;;;;;0.77;0.55;;;10.20;75.20;;;;;;5097102;28;20045;-73
2022/04/26 07:47:26;;;;;;;1.02;0.88;;;10.20;75.10;;;;;;5097388;28;20058;-74
2022/04/26 07:49:54;;;;;;;1.73;1.10;;;10.20;75.20;;;;;;5098057;28;20040;-73
2022/04/26 07:52:20;;;;;;;0.80;0.70;;;10.20;75.10;;;;;;5115262;28;20035;-74
2022/04/26 07:54:46;;;;;;;2.35;1.27;;;10.20;75.00;;;;;;5115359;28;20035;-74
2022/04/26 07:57:12;;;;;;;0.80;0.80;;;10.30;75.10;;;;;;5115611;28;20087;-73
2022/04/26 07:59:39;;;;;;;0.80;0.80;;;10.30;75.10;;;;;;5080197;28;20531;-72
2022/04/26 08:02:07;;;;;;;1.15;0.93;;;10.20;75.10;;;;;;5096837;28;20036;-73
2022/04/26 08:04:32;;;;;;;0.57;0.55;;;10.20;75.20;;;;;;5121957;28;20048;-75
2022/04/26 08:06:58;;;;;;;0.73;0.70;;;10.20;75.30;;;;;;5109112;28;20047;-74
2022/04/26 08:09:24;;;;;;;0.60;0.60;;;10.10;75.20;;;;;;5103911;28;20043;-74
2022/04/26 08:11:50;;;;;;;0.90;0.77;;;10.20;75.40;;;;;;5103081;28;20044;-73
2022/04/26 08:14:16;;;;;;;0.75;0.57;;;10.10;75.50;;;;;;5096533;28;20526;-73
2022/04/26 08:16:42;;;;;;;1.38;0.80;;;10.10;75.50;;;;;;5097271;28;20039;-74
2022/04/26 08:19:10;;;;;;;0.90;0.47;;;10.10;75.50;;;;;;5096962;28;20055;-74
2022/04/26 08:21:36;;;;;;;1.48;0.88;;;10.20;75.40;;;;;;5063996;28;20047;-73
2022/04/26 08:27:40;;;;;;;0.73;0.73;;;10.40;75.30;;;;;;5092939;28;20059;-73
2022/04/26 08:30:06;;;;;;;;;;;10.50;75.20;;;;;;5115105;28;20057;-73
2022/04/26 08:32:56;;;;;;;1.42;0.85;;;10.50;75.00;;;;;;5096216;28;19908;-73
2022/04/26 08:35:59;;;;;;;1.00;0.70;;;10.70;74.90;;;;;;5049727;28;20041;-73
2022/04/26 08:38:27;;;;;;;0.50;0.50;;;11.00;74.60;;;;;;5031228;28;20041;-73
2022/04/26 08:41:07;;;;;;;1.27;0.70;;;11.40;73.80;;;;;;5033836;28;20049;-74
2022/04/26 08:43:46;;;;;;;0.70;0.57;;;11.80;73.60;;;;;;5037351;28;20587;-74
2022/04/26 08:50:59;;;;;;;0.65;0.60;;;12.00;72.20;;;;;;4967976;28;20053;-73
2022/04/26 08:51:50;;;;;;;0.65;0.60;;;12.50;71.30;;;;;;4994762;28;20108;-73
2022/04/26 08:54:23;;;;;;;1.00;0.60;;;12.70;70.90;;;;;;4992268;28;20049;-74
2022/04/26 08:56:58;;;;;;;2.33;0.70;;;12.80;70.60;;;;;;4896292;29;20139;-73
2022/04/26 08:59:48;;;;;;;0.70;0.70;;;13.00;70.30;;;;;;4901052;29;20055;-74
2022/04/26 09:02:21;;;;;;;0.93;0.60;;;13.20;70.10;;;;;;4912514;29;20056;-75
2022/04/26 09:04:50;;;;;;;1.05;0.70;;;13.40;69.70;;;;;;4928790;29;20048;-76
2022/04/26 09:07:33;;;;;;;0.73;0.60;;;13.50;69.30;;;;;;4921471;29;20176;-75
2022/04/26 09:10:15;;;;;;;0.68;0.50;;;13.60;69.10;;;;;;4899168;29;20137;-73
2022/04/26 09:13:08;;;;;;;1.33;0.80;;;13.70;68.90;;;;;;4915133;29;20499;-74
2022/04/26 09:15:38;;;;;;;0.80;0.73;;;13.70;68.90;;;;;;4915135;29;20067;-73
2022/04/26 09:18:15;;;;;;;1.27;0.68;;;13.80;68.90;;;;;;4914834;29;20083;-72
2022/04/26 09:20:42;;;;;;;1.25;0.70;;;13.90;68.60;;;;;;4934467;28;20045;-73
2022/04/26 09:23:16;;;;;;;1.20;0.80;;;14.00;68.60;;;;;;5011221;28;20415;-73
2022/04/26 09:25:43;;;;;;;0.88;0.60;;;14.20;68.20;;;;;;5067292;28;20528;-73
2022/04/26 09:28:09;;;;;;;1.95;0.77;;;14.40;68.10;;;;;;5095436;28;20088;-72
2022/04/26 09:30:36;;;;;;;1.00;0.70;;;14.40;67.70;;;;;;5113715;28;20067;-74
2022/04/26 09:33:01;;;;;;;1.25;0.90;;;14.40;67.50;;;;;;5114319;28;20032;-73
2022/04/26 09:35:29;;;;;;;0.70;0.70;;;14.40;67.40;;;;;;5113695;28;20058;-73
2022/04/26 09:37:55;;;;;;;1.20;0.85;;;14.40;67.60;;;;;;5079053;28;20044;-72
2022/04/26 09:40:28;;;;;;;0.88;0.80;;;14.40;67.50;;;;;;5095356;28;20050;-74
2022/04/26 09:42:54;;;;;;;1.63;0.90;;;14.50;67.50;;;;;;5114008;28;20039;-74
2022/04/26 09:45:20;;;;;;;1.15;0.90;;;14.60;67.50;;;;;;5096010;28;20389;-73
2022/04/26 09:47:46;;;;;;;1.67;0.90;;;14.60;67.10;;;;;;5113196;28;20128;-73
2022/04/26 09:50:14;;;;;;;1.30;0.90;;;14.70;66.80;;;;;;5095176;28;20449;-74
2022/04/26 09:52:41;;;;;;;1.30;0.90;;;14.70;66.80;;;;;;5113780;28;20039;-73
2022/04/26 09:55:10;;;;;;;1.13;0.70;;;14.70;66.70;;;;;;5113274;28;20050;-73
2022/04/26 09:57:38;;;;;;;1.02;0.80;;;14.80;66.60;;;;;;5094976;28;20032;-73
2022/04/26 10:00:09;;;;;;;0.70;0.70;;;14.90;66.30;;;;;;5095088;28;20082;-73
2022/04/26 10:02:37;;;;;;;1.23;0.70;;;15.00;66.10;;;;;;5062091;28;20045;-73
2022/04/26 10:05:05;;;;;;;2.30;0.75;;;15.00;66.10;;;;;;5095444;28;20060;-71
2022/04/26 10:07:35;;;;;;;1.33;0.80;;;15.10;65.80;;;;;;5113153;28;20477;-72
2022/04/26 10:10:03;;;;;;;1.00;0.73;;;15.10;65.70;;;;;;5113428;28;20066;-72
2022/04/26 10:12:33;;;;;;;1.02;0.82;;;15.10;65.70;;;;;;5078179;28;20040;-73
2022/04/26 10:15:01;;;;;;;0.77;0.63;;;15.00;65.50;;;;;;5062004;28;20031;-73
2022/04/26 10:17:30;;;;;;;1.05;0.70;;;15.20;65.60;;;;;;5094783;28;20039;-73
2022/04/26 10:19:55;;;;;;;1.08;0.68;;;15.20;65.50;;;;;;5078871;28;20089;-72
2022/04/26 10:22:52;;;;;;;0.70;0.70;;;15.20;65.30;;;;;;5077753;28;20494;-73
2022/04/26 10:25:21;;;;;;;1.02;0.80;;;15.20;65.30;;;;;;5112051;28;20043;-72
2022/04/26 10:28:23;;;;;;;1.50;0.68;;;15.30;65.30;;;;;;5113364;28;20465;-72
2022/04/26 10:30:52;;;;;;;0.60;0.60;;;15.50;64.80;;;;;;5113359;28;20038;-73
2022/04/26 10:33:35;;;;;;;0.70;0.70;;;15.60;64.60;;;;;;5113220;28;20575;-73
2022/04/26 10:36:33;;;;;;;0.60;0.60;;;15.60;64.10;;;;;;5111956;28;20485;-72
2022/04/26 10:39:32;;;;;;;0.90;0.80;;;15.50;64.30;;;;;;5113166;28;20614;-72
2022/04/26 10:42:04;;;;;;;0.95;0.70;;;15.40;64.60;;;;;;5099458;28;20047;-72
2022/04/26 10:44:33;;;;;;;1.08;0.90;;;15.30;65.00;;;;;;5077914;28;20043;-71
2022/04/26 10:47:22;;;;;;;1.40;0.90;;;15.20;65.00;;;;;;5112598;28;20040;-71
2022/04/26 10:49:53;;;;;;;1.85;1.00;;;15.30;65.20;;;;;;5097503;28;20067;-72
2022/04/26 10:52:36;;;;;;;1.75;0.85;;;15.40;65.50;;;;;;5077320;28;20046;-71
2022/04/26 10:55:04;;;;;;;0.90;0.80;;;15.70;64.20;;;;;;5077694;28;20032;-74
2022/04/26 10:57:34;;;;;;;0.95;0.70;;;15.90;63.60;;;;;;5094126;28;20051;-72
2022/04/26 11:00:04;;;;;;;0.80;0.80;;;15.80;63.30;;;;;;5112854;28;20114;-72
2022/04/26 11:02:33;;;;;;;1.73;0.82;;;15.70;63.30;;;;;;5094055;28;20047;-72
2022/04/26 11:05:03;;;;;;;0.50;0.50;;;15.60;63.70;;;;;;5092877;28;20510;-72
2022/04/26 11:07:29;;;;;;;0.73;0.52;;;15.60;63.90;;;;;;5093871;28;20043;-72
2022/04/26 11:09:57;;;;;;;0.60;0.60;;;15.60;64.20;;;;;;5112279;28;20043;-73
2022/04/26 11:12:25;;;;;;;1.08;0.70;;;15.60;64.00;;;;;;5095034;28;20477;-72
2022/04/26 11:14:54;;;;;;;0.80;0.75;;;15.50;63.90;;;;;;5115851;28;20100;-72
2022/04/26 11:17:22;;;;;;;0.63;0.50;;;15.50;63.90;;;;;;5115975;28;20131;-72
2022/04/26 11:19:50;;;;;;;1.23;0.80;;;15.40;64.10;;;;;;5116317;28;20039;-72
2022/04/26 11:22:17;;;;;;;1.02;0.68;;;15.40;64.10;;;;;;5115914;28;20489;-72
2022/04/26 11:30:24;;;;;;;1.05;0.68;;;15.90;63.00;;;;;;5115623;28;20514;-71
2022/04/26 11:32:50;;;;;;;;;;;16.00;62.50;;;;;;5097790;28;20051;-71
2022/04/26 11:35:17;;;;;;;1.10;0.38;;;15.90;62.60;;;;;;5115499;28;19911;-72
2022/04/26 11:37:47;;;;;;;1.58;0.52;;;15.90;62.90;;;;;;5115649;28;20477;-71
2022/04/26 11:40:25;;;;;;;1.05;0.57;;;15.90;62.90;;;;;;5097246;28;20069;-72
2022/04/26 11:42:52;;;;;;;0.32;0.32;;;15.90;62.90;;;;;;5097369;28;20118;-71
2022/04/26 11:45:18;;;;;;;1.42;0.68;;;16.00;63.00;;;;;;5096999;28;20043;-72
2022/04/26 11:47:48;;;;;;;0.60;0.60;;;15.90;62.80;;;;;;5115249;28;20040;-72
2022/04/26 11:50:19;;;;;;;0.70;0.65;;;16.00;62.70;;;;;;5115227;28;20059;-71
2022/04/26 11:52:46;;;;;;;0.95;0.80;;;16.00;62.60;;;;;;5097712;28;20043;-71
2022/04/26 11:55:25;;;;;;;1.00;0.90;;;16.00;62.50;;;;;;5115253;28;20435;-71
2022/04/26 11:57:53;;;;;;;2.10;0.80;;;16.00;62.30;;;;;;5115652;28;20448;-71
2022/04/26 12:00:21;;;;;;;2.67;0.90;;;16.00;62.40;;;;;;5096981;28;20063;-72
2022/04/26 12:02:48;;;;;;;0.98;0.80;;;16.20;62.20;;;;;;5115783;28;20038;-71
2022/04/26 12:05:19;;;;;;;0.85;0.70;;;16.30;61.80;;;;;;5115216;28;20536;-72
2022/04/26 12:07:45;;;;;;;0.95;0.80;;;16.50;61.60;;;;;;5080337;28;20446;-72
2022/04/26 12:10:29;;;;;;;1.40;0.93;;;16.40;61.20;;;;;;5114920;28;20028;-72
2022/04/26 12:12:57;;;;;;;1.85;0.90;;;16.50;61.20;;;;;;5097108;28;20046;-72
2022/04/26 12:15:26;;;;;;;1.20;0.80;;;16.40;61.00;;;;;;5114754;28;20038;-73
2022/04/26 12:18:11;;;;;;;0.80;0.80;;;16.40;61.10;;;;;;5078510;28;20028;-73
2022/04/26 12:20:55;;;;;;;1.10;0.65;;;16.30;61.30;;;;;;5113629;28;20496;-72
2022/04/26 12:23:22;;;;;;;0.70;0.70;;;16.30;61.20;;;;;;5099115;28;20043;-73
2022/04/26 12:25:56;;;;;;;0.60;0.60;;;16.40;61.10;;;;;;5062989;28;20174;-73
2022/04/26 12:28:22;;;;;;;0.60;0.60;;;16.40;61.10;;;;;;5077910;28;20042;-73
2022/04/26 12:30:48;;;;;;;1.00;0.85;;;16.60;60.80;;;;;;5062724;28;20075;-73
2022/04/26 12:33:29;;;;;;;1.42;0.90;;;16.60;60.50;;;;;;5115078;28;20061;-73
2022/04/26 12:35:55;;;;;;;;;;;16.50;60.60;;;;;;5079898;28;20126;-73
2022/04/26 12:38:21;;;;;;;1.33;0.70;;;16.50;60.80;;;;;;5093915;28;19959;-73
2022/04/26 12:41:01;;;;;;;1.10;0.85;;;16.50;60.60;;;;;;5096615;28;20056;-73
2022/04/26 12:43:28;;;;;;;1.15;0.90;;;16.40;60.60;;;;;;5095077;28;20112;-72
2022/04/26 12:46:01;;;;;;;1.60;0.98;;;16.30;60.80;;;;;;5114875;28;20047;-72
2022/04/26 12:51:18;;;;;;;0.57;0.57;;;16.10;61.00;;;;;;5095192;28;20051;-72
2022/04/26 12:53:45;;;;;;;0.50;0.50;;;16.20;61.10;;;;;;5094752;28;20109;-73
2022/04/26 12:56:11;;;;;;;0.93;0.80;;;16.20;60.80;;;;;;5078963;28;20043;-72
2022/04/26 12:58:40;;;;;;;0.63;0.63;;;16.40;60.50;;;;;;5096032;28;20524;-73
2022/04/26 13:01:09;;;;;;;1.00;0.70;;;16.50;60.20;;;;;;5063046;28;20039;-72
2022/04/26 13:03:40;;;;;;;0.70;0.70;;;16.50;60.00;;;;;;5079504;28;20047;-72
2022/04/26 13:06:11;;;;;;;0.90;0.70;;;16.60;59.80;;;;;;5113707;28;20043;-73
2022/04/26 13:08:39;;;;;;;0.40;0.40;;;16.50;59.60;;;;;;5079384;28;20274;-73
2022/04/26 13:11:06;;;;;;;1.00;0.80;;;16.40;59.80;;;;;;5062235;28;20109;-73
2022/04/26 13:13:35;;;;;;;0.75;0.60;;;16.30;60.10;;;;;;5062235;28;20039;-73
2022/04/26 13:16:01;;;;;;;0.60;0.60;;;16.10;60.10;;;;;;5096564;28;20070;-73
2022/04/26 13:18:28;;;;;;;0.90;0.68;;;16.20;60.10;;;;;;5113939;28;20043;-74
2022/04/26 13:20:56;;;;;;;1.42;0.90;;;16.10;60.00;;;;;;5078841;28;20118;-73
2022/04/26 13:23:22;;;;;;;2.00;1.10;;;16.10;60.10;;;;;;5114356;28;20040;-72
2022/04/26 13:25:48;;;;;;;0.55;0.50;;;16.00;60.00;;;;;;5096147;28;20131;-71
2022/04/26 13:28:14;;;;;;;1.15;0.73;;;16.10;59.90;;;;;;5096148;28;20538;-70
2022/04/26 13:30:41;;;;;;;1.33;0.85;;;16.00;59.90;;;;;;5095999;28;20040;-72
2022/04/26 13:33:07;;;;;;;0.98;0.70;;;16.00;59.70;;;;;;5113825;28;20058;-72
2022/04/26 13:35:33;;;;;;;0.85;0.60;;;16.10;59.80;;;;;;5094638;28;20134;-73
2022/04/26 13:37:59;;;;;;;0.45;0.45;;;16.00;59.60;;;;;;5078889;28;20043;-72
2022/04/26 13:40:26;;;;;;;1.02;0.77;;;16.10;59.60;;;;;;5095347;28;20040;-74
2022/04/26 13:42:51;;;;;;;1.02;0.77;;;16.10;59.30;;;;;;5095291;28;20040;-72
2022/04/26 13:45:17;;;;;;;1.33;0.75;;;16.10;59.30;;;;;;5114120;28;20059;-74
2022/04/26 13:47:45;;;;;;;0.82;0.73;;;16.00;59.10;;;;;;5114146;28;20062;-75
2022/04/26 13:50:12;;;;;;;1.23;0.75;;;15.90;59.20;;;;;;5079049;28;20035;-74
2022/04/26 13:56:00;;;;;;;1.08;0.68;;;15.90;58.90;;;;;;5048318;28;20094;-74
2022/04/26 13:58:26;;;;;;;1.33;0.70;;;16.00;58.80;;;;;;5033253;28;20476;-73
2022/04/26 14:00:52;;;;;;;1.08;0.75;;;16.10;58.80;;;;;;5050500;28;20124;-73
2022/04/26 14:03:18;;;;;;;0.90;0.70;;;16.10;58.50;;;;;;5051035;28;20509;-73
2022/04/26 14:05:44;;;;;;;0.73;0.65;;;16.20;58.20;;;;;;5033730;28;20402;-74
2022/04/26 14:08:13;;;;;;;1.98;0.70;;;16.30;58.00;;;;;;4999279;28;20514;-75
2022/04/26 14:10:38;;;;;;;0.75;0.60;;;16.20;57.90;;;;;;5034692;28;20041;-76
2022/04/26 14:13:05;;;;;;;2.28;1.00;;;16.10;58.00;;;;;;5050850;28;20055;-76
2022/04/26 14:23:36;;;;;;;1.05;0.88;;;16.00;57.90;;;;;;5051021;28;20044;-76
2022/04/26 14:26:03;;;;;;;1.48;0.80;;;15.90;57.70;;;;;;5036637;28;20047;-74
2022/04/26 14:28:29;;;;;;;1.55;0.88;;;15.90;57.50;;;;;;5113016;28;20031;-74
2022/04/26 14:30:55;;;;;;;1.10;0.70;;;15.90;57.60;;;;;;5113430;28;20122;-73
2022/04/26 14:33:21;;;;;;;1.20;0.60;;;15.90;57.70;;;;;;5095300;28;20118;-75
2022/04/26 14:35:47;;;;;;;1.00;0.70;;;15.80;57.60;;;;;;5112857;28;20028;-75
2022/04/26 14:38:12;;;;;;;0.65;0.65;;;16.00;57.50;;;;;;5078060;28;20039;-75
2022/04/26 14:40:39;;;;;;;1.30;1.20;;;16.10;57.40;;;;;;5112644;28;20485;-74
2022/04/26 14:43:07;;;;;;;2.08;0.80;;;16.00;57.00;;;;;;5077826;28;20055;-76
2022/04/26 14:45:33;;;;;;;1.73;1.00;;;16.20;57.10;;;;;;5094597;28;20123;-73
2022/04/26 14:48:00;;;;;;;1.05;0.85;;;16.10;56.90;;;;;;5096282;28;20131;-74
2022/04/26 14:50:26;;;;;;;1.20;0.60;;;16.10;56.80;;;;;;5116431;28;20118;-74
2022/04/26 14:52:53;;;;;;;0.95;0.88;;;16.20;56.70;;;;;;5116284;28;20127;-75
2022/04/26 14:55:18;;;;;;;1.15;0.70;;;16.20;56.70;;;;;;5098510;28;20418;-74
2022/04/26 14:57:44;;;;;;;0.60;0.55;;;16.20;56.70;;;;;;5080921;28;20063;-74
2022/04/26 15:00:10;;;;;;;0.80;0.70;;;16.20;56.70;;;;;;5098405;28;20069;-74
2022/04/26 15:02:38;;;;;;;0.65;0.65;;;16.30;56.70;;;;;;5116290;28;20040;-76
2022/04/26 15:05:07;;;;;;;1.05;0.90;;;16.30;56.70;;;;;;5116099;28;20164;-75
2022/04/26 15:10:42;;;;;;;1.33;1.10;;;16.10;56.80;;;;;;5053080;28;20207;-75
2022/04/26 15:18:30;;;;;;;0.90;0.60;;;15.70;57.20;;;;;;5032700;28;20492;-73
2022/04/26 15:20:55;;;;;;;0.70;0.70;;;15.80;57.30;;;;;;5016563;28;20084;-73
2022/04/26 15:23:22;;;;;;;1.45;0.80;;;15.90;57.30;;;;;;5016430;28;20480;-73
2022/04/26 15:25:50;;;;;;;0.80;0.80;;;15.90;57.10;;;;;;5033069;28;20042;-73
2022/04/26 15:28:18;;;;;;;0.77;0.75;;;15.90;57.10;;;;;;5032993;28;20029;-73
2022/04/26 15:30:45;;;;;;;2.83;1.00;;;15.80;56.90;;;;;;5016683;28;20038;-74
2022/04/26 15:33:10;;;;;;;1.05;0.73;;;15.80;57.00;;;;;;5033422;28;20641;-73
2022/04/26 15:35:38;;;;;;;0.93;0.80;;;15.80;57.00;;;;;;5069624;28;20119;-73
2022/04/26 15:38:06;;;;;;;0.70;0.68;;;15.70;57.20;;;;;;5088450;28;20043;-73
2022/04/26 15:40:31;;;;;;;2.08;0.70;;;15.70;57.30;;;;;;5115844;28;20120;-73
2022/04/26 15:42:57;;;;;;;1.02;0.70;;;15.70;57.30;;;;;;5115408;28;20062;-73
2022/04/26 15:45:23;;;;;;;1.23;0.80;;;15.70;57.30;;;;;;5097510;28;20041;-73
2022/04/26 15:47:48;;;;;;;0.80;0.70;;;15.70;57.30;;;;;;5115391;28;20127;-73
2022/04/26 15:50:14;;;;;;;1.27;0.70;;;15.70;57.20;;;;;;5096999;28;20035;-73
2022/04/26 15:52:40;;;;;;;1.00;0.90;;;15.70;57.10;;;;;;5115211;28;20040;-73
2022/04/26 15:55:07;;;;;;;1.10;0.93;;;15.60;57.00;;;;;;5115295;28;20061;-73
2022/04/26 15:57:33;;;;;;;1.10;0.85;;;15.50;57.10;;;;;;5096794;28;20054;-73
2022/04/26 16:00:00;;;;;;;1.20;0.73;;;15.40;57.30;;;;;;5115392;28;20481;-73
2022/04/26 16:02:26;;;;;;;2.70;0.90;;;15.40;57.40;;;;;;5115083;28;20135;-72
2022/04/26 16:04:51;;;;;;;2.03;0.60;;;15.50;57.30;;;;;;5115026;28;20067;-72
2022/04/26 16:07:18;;;;;;;1.10;0.75;;;15.30;57.30;;;;;;5115248;28;20386;-72
2022/04/26 16:20:30;;;;;;;0.88;0.70;;;15.30;57.10;;;;;;5098796;28;20043;-72
2022/04/26 16:22:58;;;;;;;0.77;0.60;;;15.40;57.00;;;;;;5114909;28;20158;-72
2022/04/26 16:25:24;;;;;;;1.02;0.60;;;15.30;56.90;;;;;;5096474;28;20526;-72
2022/04/26 16:27:50;;;;;;;0.50;0.50;;;15.20;57.00;;;;;;5079974;28;20501;-72
2022/04/26 16:30:16;;;;;;;0.60;0.60;;;15.10;57.30;;;;;;5115363;28;20039;-72
2022/04/26 16:32:43;;;;;;;0.95;0.60;;;15.00;57.30;;;;;;5096475;28;20067;-73
2022/04/26 16:35:10;;;;;;;0.60;0.60;;;14.90;57.40;;;;;;5096801;28;20040;-72
2022/04/26 16:37:37;;;;;;;1.17;0.90;;;14.80;57.60;;;;;;5114695;28;20505;-73
2022/04/26 16:40:03;;;;;;;1.05;0.80;;;14.80;57.70;;;;;;5079743;28;20050;-72
2022/04/26 16:42:30;;;;;;;1.10;0.80;;;14.70;57.70;;;;;;5096893;28;20043;-72
2022/04/26 16:44:56;;;;;;;0.95;0.88;;;14.60;57.70;;;;;;5096378;28;20396;-73
2022/04/26 16:47:22;;;;;;;0.73;0.73;;;14.50;57.80;;;;;;5095977;28;20138;-72
2022/04/26 16:49:48;;;;;;;1.00;0.90;;;14.40;57.80;;;;;;5114160;28;20135;-72
2022/04/26 16:52:13;;;;;;;0.80;0.70;;;14.30;57.80;;;;;;5079164;28;20089;-72
2022/04/26 16:54:39;;;;;;;0.40;0.40;;;14.30;57.90;;;;;;5114087;28;20040;-73
2022/04/26 16:57:05;;;;;;;0.82;0.70;;;14.30;57.90;;;;;;5114192;28;20035;-73
2022/04/26 16:59:31;;;;;;;0.55;0.50;;;14.20;57.90;;;;;;5114039;28;20031;-73
2022/04/26 17:01:57;;;;;;;1.55;0.82;;;14.20;57.90;;;;;;5096171;28;20066;-73
2022/04/26 17:04:24;;;;;;;0.73;0.70;;;14.20;57.90;;;;;;5114063;28;20552;-73
2022/04/26 17:06:50;;;;;;;0.60;0.60;;;14.20;57.70;;;;;;5114113;28;20079;-73
2022/04/26 17:09:17;;;;;;;0.55;0.35;;;14.20;57.60;;;;;;5114165;28;20078;-72
2022/04/26 17:11:42;;;;;;;0.57;0.50;;;14.30;57.60;;;;;;5113419;28;20036;-72
2022/04/26 17:14:10;;;;;;;0.70;0.63;;;14.30;57.60;;;;;;5096106;28;20035;-72
2022/04/26 17:16:36;;;;;;;0.40;0.40;;;14.30;57.40;;;;;;5113915;28;20031;-73
2022/04/26 17:19:02;;;;;;;0.70;0.60;;;14.20;57.40;;;;;;5113997;28;20028;-72
2022/04/26 17:21:29;;;;;;;0.60;0.55;;;14.20;57.40;;;;;;5113817;28;20054;-72
2022/04/26 17:23:55;;;;;;;0.60;0.60;;;14.00;57.40;;;;;;5114362;28;20048;-72
2022/04/26 17:26:22;;;;;;;0.52;0.52;;;14.00;57.50;;;;;;5114193;28;20123;-71